Kobuk Valley National Park, AK

11:52 AM AKDT op 30 september 2014 (GMT -0800)
Baker Memorial | Change Station
CLOSE
Current Station
Luchthaven
Location: Kiana,
Geometrische hoogte: 151 ft
Nabije weerstations

Hoogte 151 ft 66.98 °N, 160.44 °W | Updated 42 minutes ago

Overcast
Geheel bewolkt
36 °F
Voelt als 30 °F
N
7
Wind Variabel Wind van WZW

Vandaag
Hoog -- | Laag -- °F
--% Kans op neerslag
Gisteren
Hoog -- | Laag -- °F
Precip. -- inches
8:51 AM 8:09 PM
Wassende halvemaan, 39% visible
Druk 30.16 inches
Zicht 10.0 mijlen
Wolken Geheel bewolkt 2800 ft
Gevoelstemperatuur 30 °F
Dauwpunt 28 °F
Vochtigheid 75%
Neerslag 0.00 inches
Dikte sneeuw 1 in , 3 in , 16 in
UV 0 van de 12
Pollen Niet beschikbaar.
Luchtkwaliteit Niet beschikbaar.
Flu Activity Niet beschikbaar.
SPECI PAIK 301910Z AUTO 24006KT 10SM OVC028 02/M02 A3016 RMK AO2 FZRANO PNO $

More Conditions Fewer Conditions

Druk 30.16 inches
Zicht 10.0 mijlen
Wolken Geheel bewolkt 2800 ft
Gevoelstemperatuur 30 °F
Dauwpunt 28 °F
Vochtigheid 75%
Neerslag 0.00 inches
Dikte sneeuw 1 in , 3 in , 16 in
UV 0 van de 12
Pollen Niet beschikbaar.
Luchtkwaliteit Niet beschikbaar.
Flu Activity Niet beschikbaar.
SPECI PAIK 301910Z AUTO 24006KT 10SM OVC028 02/M02 A3016 RMK AO2 FZRANO PNO $

More Conditions Fewer Conditions

10-Day Weather Forecast

Almanac

Astronomie

Sep. 30, 2014 Opkomst Ondergang
Werkelijke tijd 8:51 AM AKDT 8:09 PM AKDT
Burgerlijke schemering 7:56 AM AKDT 9:03 PM AKDT
Nautische schemering 6:51 AM AKDT 10:08 PM AKDT
Astronomische schemering 5:37 AM AKDT 11:21 PM AKDT
Maan 5:33 PM AKDT 10:29 PM AKDT
Golflengte van het zichtbare licht 13h 06m
Daglengte
11h 18m
Tomorrow will be 7m 32s shorter.
Wassende halvemaan, 39% of the Moon is Illuminated
Vandaag
Wassende halvemaan
oktober 1
Eerste kwartier
oktober 8
Volle maan
oktober 15
Laatste kwartier
oktober 23
Nieuw

Extremen vandaag

State Highs State Lows

Community

WunderPhotos

Upload Photos

1,757,731 foto’s ge-upload!

Nearby

Luchtkwaliteit

Not available.

Dikte sneeuw

Station Depth Geometrische hoogte
Point Mackenzie 1 in 200 ft
Munson Ridge 3 in 3100 ft
Grandview 16 in 1100 ft
Pargon Creek 1 in 300 ft
Summit Creek 0 in 1400 ft

Aardbevingen

Stad Distance Mag. Time & Date
No recent earthquake activity has been reported nearby.
Minimum magnitude displayed is 2.5.

Watertemperatuur langs de kust

Plaats Temperatuur
Geen meldingen van stations

Nabije weerstations